createdAt,value
2022-09-29T00:03:49.154Z,71.98
2022-09-29T00:08:52.494Z,72.15
2022-09-29T00:13:56.129Z,72.20
2022-09-29T00:18:59.750Z,72.28
2022-09-29T00:24:03.221Z,72.44
2022-09-29T00:29:06.432Z,72.51
2022-09-29T00:34:09.703Z,72.49
2022-09-29T00:39:19.144Z,72.63
2022-09-29T00:44:22.618Z,72.78
2022-09-29T00:49:38.695Z,72.94
2022-09-29T00:54:58.361Z,72.81
2022-09-29T01:00:08.259Z,73.19
2022-09-29T01:05:18.338Z,73.34
2022-09-29T01:10:22.652Z,73.06
2022-09-29T01:15:27.246Z,73.41
2022-09-29T01:20:35.343Z,73.45
2022-09-29T01:26:00.783Z,73.39
2022-09-29T01:31:19.713Z,73.65
2022-09-29T01:36:29.851Z,73.72
2022-09-29T01:41:50.480Z,73.90
2022-09-29T01:47:08.474Z,73.86
2022-09-29T01:52:20.638Z,73.99
2022-09-29T01:57:35.129Z,74.01
2022-09-29T02:02:41.548Z,74.17
2022-09-29T02:07:47.836Z,74.43
2022-09-29T02:12:54.251Z,74.55
2022-09-29T02:18:03.571Z,74.46
2022-09-29T02:23:07.385Z,74.43
2022-09-29T02:28:11.684Z,74.81
2022-09-29T02:33:24.160Z,74.63
2022-09-29T02:38:43.089Z,74.52
2022-09-29T02:44:17.458Z,74.56
2022-09-29T02:49:28.264Z,74.85
2022-09-29T02:55:10.189Z,74.71
2022-09-29T03:00:16.196Z,75.08
2022-09-29T03:05:22.313Z,75.01
2022-09-29T03:10:30.225Z,74.96
2022-09-29T03:15:34.775Z,75.07
2022-09-29T03:20:38.428Z,75.05
2022-09-29T03:25:42.623Z,75.16
2022-09-29T03:30:46.450Z,75.19
2022-09-29T03:35:50.113Z,75.23
2022-09-29T03:40:54.050Z,75.28
2022-09-29T03:45:58.316Z,75.25
2022-09-29T03:51:02.551Z,75.11
2022-09-29T03:56:06.227Z,75.15
2022-09-29T04:01:10.771Z,75.07
2022-09-29T04:06:15.059Z,75.01
2022-09-29T04:11:20.373Z,74.93
2022-09-29T04:16:27.986Z,75.05
2022-09-29T04:21:31.432Z,74.65
2022-09-29T04:26:34.643Z,74.58
2022-09-29T04:31:38.013Z,74.37
2022-09-29T04:36:42.197Z,74.29
2022-09-29T04:41:49.041Z,74.13
2022-09-29T04:46:52.832Z,74.11
2022-09-29T04:51:56.123Z,73.94
2022-09-29T04:57:00.375Z,72.19
2022-09-29T05:02:04.946Z,70.19
2022-09-29T05:07:08.294Z,68.15
2022-09-29T05:12:11.562Z,67.17
2022-09-29T05:17:15.212Z,67.63
2022-09-29T05:22:18.768Z,68.46
2022-09-29T05:27:22.955Z,68.63
2022-09-29T05:32:27.335Z,69.04
2022-09-29T05:37:31.256Z,69.27
2022-09-29T05:42:34.902Z,69.62
2022-09-29T05:47:42.915Z,69.45
2022-09-29T05:52:46.629Z,69.46
2022-09-29T05:57:50.548Z,69.30
2022-09-29T06:02:54.763Z,69.34
2022-09-29T06:08:02.333Z,69.60
2022-09-29T06:13:05.609Z,68.90
2022-09-29T06:18:08.764Z,68.96
2022-09-29T06:23:12.152Z,68.55
2022-09-29T06:28:15.851Z,68.98
2022-09-29T06:33:20.225Z,68.86
2022-09-29T06:38:23.553Z,68.63
2022-09-29T06:43:27.607Z,68.30
2022-09-29T06:48:31.654Z,68.39
2022-09-29T06:53:39.020Z,68.06
2022-09-29T06:58:42.543Z,67.90
2022-09-29T07:03:45.972Z,67.80
2022-09-29T07:08:55.326Z,67.49
2022-09-29T07:13:58.702Z,67.55
2022-09-29T07:19:02.183Z,67.30
2022-09-29T07:24:05.934Z,67.02
2022-09-29T07:29:15.549Z,66.65
2022-09-29T07:34:21.679Z,66.53
2022-09-29T07:39:25.418Z,66.70
2022-09-29T07:44:30.121Z,66.61
2022-09-29T07:49:33.609Z,66.02
2022-09-29T07:54:37.181Z,65.66
2022-09-29T07:59:47.347Z,64.83
2022-09-29T08:05:00.108Z,63.81
2022-09-29T08:10:16.237Z,63.37
2022-09-29T08:15:21.188Z,63.33
2022-09-29T08:20:24.988Z,63.12
2022-09-29T08:25:28.402Z,63.44
2022-09-29T08:30:31.860Z,63.09
2022-09-29T08:35:35.441Z,63.07
2022-09-29T08:40:38.901Z,62.93
2022-09-29T08:46:00.563Z,62.82
2022-09-29T08:51:10.221Z,62.61
2022-09-29T08:56:18.659Z,62.72
2022-09-29T09:02:03.504Z,62.59
2022-09-29T09:07:34.970Z,62.47
2022-09-29T09:13:11.947Z,61.92
2022-09-29T09:18:29.077Z,61.41
2022-09-29T09:23:41.722Z,61.37
2022-09-29T09:28:58.750Z,61.15
2022-09-29T09:34:14.059Z,60.95
2022-09-29T09:39:22.240Z,61.27
2022-09-29T09:44:35.067Z,61.04
2022-09-29T09:49:45.216Z,60.69
2022-09-29T09:54:53.862Z,60.67
2022-09-29T10:00:06.935Z,60.81
2022-09-29T10:05:22.254Z,60.90
2022-09-29T10:10:29.851Z,61.22
2022-09-29T10:15:41.961Z,61.50
2022-09-29T10:20:45.723Z,61.31
2022-09-29T10:26:01.716Z,61.55
2022-09-29T10:31:28.604Z,61.61
2022-09-29T10:36:49.492Z,61.73
2022-09-29T10:41:53.016Z,61.59
2022-09-29T10:46:57.963Z,61.50
2022-09-29T10:52:07.546Z,61.79
2022-09-29T10:57:16.410Z,61.84
2022-09-29T11:02:37.576Z,61.82
2022-09-29T11:07:47.578Z,61.77
2022-09-29T11:12:51.156Z,61.86
2022-09-29T11:17:55.957Z,61.98
2022-09-29T11:23:19.891Z,62.01
2022-09-29T11:28:41.080Z,62.31
2022-09-29T11:34:00.208Z,62.26
2022-09-29T11:39:09.824Z,62.30
2022-09-29T11:44:33.622Z,62.34
2022-09-29T11:49:45.965Z,62.29
2022-09-29T11:54:58.764Z,62.27
2022-09-29T12:00:09.564Z,62.13
2022-09-29T12:05:25.058Z,62.57
2022-09-29T12:11:13.066Z,62.45
2022-09-29T12:16:31.334Z,62.79
2022-09-29T12:21:37.372Z,62.57
2022-09-29T12:26:51.802Z,62.65
2022-09-29T12:32:01.991Z,62.83
2022-09-29T12:37:37.006Z,62.75
2022-09-29T12:42:40.436Z,62.59
2022-09-29T12:48:02.590Z,62.65
2022-09-29T12:53:34.803Z,63.04
2022-09-29T12:59:03.607Z,62.93
2022-09-29T13:04:19.189Z,63.08
2022-09-29T13:09:44.704Z,63.14
2022-09-29T13:15:13.329Z,63.26
2022-09-29T13:20:25.832Z,63.05
2022-09-29T13:25:38.295Z,63.18
2022-09-29T13:30:41.673Z,63.20
2022-09-29T13:35:48.262Z,63.02
2022-09-29T13:41:18.315Z,63.33
2022-09-29T13:46:26.274Z,63.40
2022-09-29T13:51:59.423Z,63.68
2022-09-29T13:57:18.545Z,63.90
2022-09-29T14:02:29.840Z,64.05
2022-09-29T14:07:47.715Z,64.14
2022-09-29T14:13:03.987Z,64.46
2022-09-29T14:18:30.712Z,64.06
2022-09-29T14:23:46.981Z,64.61
2022-09-29T14:28:53.454Z,64.86
2022-09-29T14:33:57.908Z,65.15
2022-09-29T14:39:25.612Z,65.61
2022-09-29T14:44:25.031Z,65.67
2022-09-29T14:49:58.858Z,65.83
2022-09-29T14:55:27.125Z,66.35
2022-09-29T15:00:58.215Z,66.41
2022-09-29T15:06:12.109Z,66.80
2022-09-29T15:11:32.215Z,67.39
2022-09-29T15:16:48.186Z,67.64
2022-09-29T15:22:23.048Z,67.88
2022-09-29T15:27:27.148Z,68.57
2022-09-29T15:32:32.455Z,68.64
2022-09-29T15:37:51.049Z,68.73
2022-09-29T15:42:54.321Z,69.23
2022-09-29T15:48:05.941Z,69.78
2022-09-29T15:53:11.559Z,69.79
2022-09-29T15:58:26.849Z,70.09
2022-09-29T16:03:38.317Z,69.98
2022-09-29T16:08:52.479Z,70.40
2022-09-29T16:14:10.759Z,70.45
2022-09-29T16:19:16.852Z,70.94
2022-09-29T16:24:21.736Z,71.09
2022-09-29T16:29:30.101Z,71.59
2022-09-29T16:34:33.609Z,71.63
2022-09-29T16:39:46.981Z,71.41
2022-09-29T16:44:53.362Z,71.80
2022-09-29T16:50:02.869Z,72.04
2022-09-29T16:55:28.283Z,72.37
2022-09-29T17:00:34.948Z,72.28
2022-09-29T17:05:42.068Z,72.75
2022-09-29T17:10:48.287Z,72.64
2022-09-29T17:15:56.302Z,73.25
2022-09-29T17:20:59.958Z,73.11
2022-09-29T17:26:04.598Z,73.25
2022-09-29T17:31:12.755Z,73.27
2022-09-29T17:36:21.682Z,73.72
2022-09-29T17:41:35.104Z,73.76
2022-09-29T17:46:39.339Z,73.73
2022-09-29T17:51:43.245Z,74.23
2022-09-29T17:56:47.484Z,74.34
2022-09-29T18:01:51.098Z,74.53
2022-09-29T18:06:54.893Z,74.45
2022-09-29T18:11:58.763Z,74.43
2022-09-29T18:17:04.490Z,74.62
2022-09-29T18:22:08.158Z,74.68
2022-09-29T18:27:11.972Z,75.33
2022-09-29T18:32:19.470Z,75.67
2022-09-29T18:37:23.530Z,75.24
2022-09-29T18:42:26.935Z,75.73
2022-09-29T18:47:30.320Z,76.15
2022-09-29T18:52:34.431Z,75.88
2022-09-29T18:57:37.891Z,75.91
2022-09-29T19:02:42.174Z,76.23
2022-09-29T19:07:47.301Z,76.14
2022-09-29T19:12:51.834Z,76.89
2022-09-29T19:17:56.169Z,76.56
2022-09-29T19:22:59.726Z,77.07
2022-09-29T19:28:05.349Z,77.13
2022-09-29T19:33:11.920Z,77.24
2022-09-29T19:38:16.064Z,77.21
2022-09-29T19:43:20.074Z,77.58
2022-09-29T19:48:24.328Z,77.53
2022-09-29T19:53:27.950Z,77.65
2022-09-29T19:58:31.635Z,77.97
2022-09-29T20:03:35.147Z,78.10
2022-09-29T20:08:38.641Z,78.47
2022-09-29T20:13:42.207Z,78.10
2022-09-29T20:18:48.834Z,78.43
2022-09-29T20:23:53.001Z,78.63
2022-09-29T20:28:56.740Z,78.73
2022-09-29T20:34:00.465Z,79.04
2022-09-29T20:39:04.574Z,78.74
2022-09-29T20:44:08.026Z,79.42
2022-09-29T20:49:11.399Z,79.32
2022-09-29T20:54:14.972Z,79.61
2022-09-29T20:59:21.906Z,79.13
2022-09-29T21:04:26.825Z,79.20
2022-09-29T21:09:30.456Z,79.71
2022-09-29T21:14:34.648Z,79.99
2022-09-29T21:19:41.440Z,80.02
2022-09-29T21:24:45.187Z,80.07
2022-09-29T21:29:48.895Z,80.01
2022-09-29T21:34:52.418Z,80.21
2022-09-29T21:39:55.944Z,80.49
2022-09-29T21:44:59.647Z,80.21
2022-09-29T21:50:05.557Z,80.31
2022-09-29T21:55:11.311Z,80.21
2022-09-29T22:00:16.133Z,80.74
2022-09-29T22:05:20.297Z,80.59
2022-09-29T22:10:23.537Z,80.80
2022-09-29T22:15:27.099Z,80.81
2022-09-29T22:20:30.575Z,81.07
2022-09-29T22:25:34.213Z,81.30
2022-09-29T22:30:38.555Z,81.33
2022-09-29T22:35:42.245Z,81.69
2022-09-29T22:40:45.742Z,81.41
2022-09-29T22:45:50.629Z,81.75
2022-09-29T22:50:54.857Z,81.62
2022-09-29T22:55:58.487Z,82.08
2022-09-29T23:01:04.791Z,81.75
2022-09-29T23:06:10.987Z,81.57
2022-09-29T23:11:19.989Z,82.14
2022-09-29T23:16:23.561Z,81.91
2022-09-29T23:21:27.084Z,82.17
2022-09-29T23:26:31.152Z,81.99
2022-09-29T23:31:34.736Z,82.34
2022-09-29T23:36:39.961Z,82.34
2022-09-29T23:41:47.853Z,82.52
2022-09-29T23:46:52.590Z,82.18
2022-09-29T23:51:59.133Z,82.67
2022-09-29T23:57:02.891Z,82.53
